createdAt,value
2023-02-12T00:00:04.261Z,7.10
2023-02-12T00:02:31.045Z,7.20
2023-02-12T00:04:57.861Z,7.10
2023-02-12T00:07:24.725Z,7.20
2023-02-12T00:09:51.422Z,7.10
2023-02-12T00:12:18.357Z,7.20
2023-02-12T00:14:45.239Z,7.20
2023-02-12T00:17:11.992Z,7.10
2023-02-12T00:19:38.768Z,7.10
2023-02-12T00:22:05.491Z,7.30
2023-02-12T00:24:32.542Z,7.30
2023-02-12T00:26:59.490Z,7.20
2023-02-12T00:29:26.222Z,7.90
2023-02-12T00:31:53.030Z,7.20
2023-02-12T00:34:19.821Z,7.10
2023-02-12T00:36:46.527Z,7.20
2023-02-12T00:39:13.310Z,7.40
2023-02-12T00:41:40.085Z,7.40
2023-02-12T00:44:06.800Z,7.50
2023-02-12T00:46:33.516Z,7.50
2023-02-12T00:49:00.348Z,7.50
2023-02-12T00:51:27.132Z,7.60
2023-02-12T00:53:53.896Z,7.60
2023-02-12T00:56:20.875Z,7.60
2023-02-12T00:58:47.622Z,7.60
2023-02-12T01:01:14.483Z,7.60
2023-02-12T01:03:42.423Z,7.60
2023-02-12T01:06:09.230Z,7.60
2023-02-12T01:08:35.972Z,7.60
2023-02-12T01:11:05.068Z,7.60
2023-02-12T01:13:32.950Z,7.60
2023-02-12T01:16:14.812Z,7.60
2023-02-12T01:18:41.767Z,7.60
2023-02-12T01:21:10.847Z,7.50
2023-02-12T01:23:37.656Z,7.40
2023-02-12T01:26:04.749Z,7.30
2023-02-12T01:28:31.427Z,7.10
2023-02-12T01:30:58.349Z,6.90
2023-02-12T01:33:25.115Z,6.80
2023-02-12T01:35:51.829Z,6.90
2023-02-12T01:38:18.663Z,6.70
2023-02-12T01:40:45.448Z,6.50
2023-02-12T01:43:13.127Z,6.50
2023-02-12T01:45:46.032Z,6.40
2023-02-12T01:48:14.908Z,6.10
2023-02-12T01:50:43.957Z,6.00
2023-02-12T01:53:11.127Z,6.00
2023-02-12T01:55:38.017Z,6.00
2023-02-12T01:58:05.980Z,5.90
2023-02-12T02:00:33.530Z,5.80
2023-02-12T02:03:01.700Z,5.80
2023-02-12T02:05:46.353Z,5.80
2023-02-12T02:08:13.610Z,5.60
2023-02-12T02:10:40.448Z,5.40
2023-02-12T02:13:26.749Z,5.30
2023-02-12T02:16:00.094Z,5.30
2023-02-12T02:18:31.154Z,5.30
2023-02-12T02:21:28.816Z,5.20
2023-02-12T02:24:31.678Z,5.20
2023-02-12T02:27:52.789Z,5.00
2023-02-12T02:30:45.693Z,5.00
2023-02-12T02:33:32.574Z,4.80
2023-02-12T02:36:28.565Z,4.80
2023-02-12T02:39:17.481Z,4.80
2023-02-12T02:41:53.841Z,4.60
2023-02-12T02:44:32.026Z,4.60
2023-02-12T02:47:00.623Z,4.50
2023-02-12T02:49:51.692Z,4.30
2023-02-12T02:52:24.239Z,4.20
2023-02-12T02:54:56.731Z,4.20
2023-02-12T02:57:41.480Z,4.10
2023-02-12T03:00:18.566Z,4.20
2023-02-12T03:03:23.024Z,4.20
2023-02-12T03:05:54.704Z,4.10
2023-02-12T03:08:29.580Z,4.10
2023-02-12T03:11:03.892Z,4.10
2023-02-12T03:13:52.231Z,4.10
2023-02-12T03:16:25.845Z,4.20
2023-02-12T03:19:10.922Z,4.20
2023-02-12T03:21:43.579Z,4.10
2023-02-12T03:24:10.264Z,4.00
2023-02-12T03:26:45.188Z,3.90
2023-02-12T03:29:12.228Z,4.10
2023-02-12T03:31:54.798Z,4.00
2023-02-12T03:34:35.603Z,3.90
2023-02-12T03:37:10.744Z,3.80
2023-02-12T03:40:05.449Z,3.70
2023-02-12T03:42:58.261Z,3.70
2023-02-12T03:45:49.911Z,3.70
2023-02-12T03:48:27.111Z,3.70
2023-02-12T03:50:58.409Z,3.70
2023-02-12T03:53:27.548Z,3.60
2023-02-12T03:56:00.041Z,3.50
2023-02-12T03:58:29.552Z,3.50
2023-02-12T04:00:57.259Z,3.40
2023-02-12T04:03:24.921Z,3.50
2023-02-12T04:05:51.759Z,3.50
2023-02-12T04:08:18.546Z,3.50
2023-02-12T04:11:12.753Z,3.60
2023-02-12T04:14:05.254Z,3.70
2023-02-12T04:16:40.556Z,3.90
2023-02-12T04:19:11.715Z,4.00
2023-02-12T04:22:13.197Z,4.00
2023-02-12T04:24:53.233Z,3.80
2023-02-12T04:27:55.361Z,3.70
2023-02-12T04:30:48.641Z,3.70
2023-02-12T04:33:21.654Z,3.60
2023-02-12T04:35:51.357Z,3.60
2023-02-12T04:38:30.233Z,3.50
2023-02-12T04:40:58.225Z,3.40
2023-02-12T04:43:36.400Z,3.30
2023-02-12T04:46:05.788Z,3.50
2023-02-12T04:48:34.534Z,3.60
2023-02-12T04:51:02.039Z,3.50
2023-02-12T04:53:29.203Z,3.30
2023-02-12T04:55:56.312Z,3.30
2023-02-12T04:58:23.245Z,3.30
2023-02-12T05:00:50.001Z,3.50
2023-02-12T05:03:16.746Z,3.50
2023-02-12T05:05:43.408Z,3.40
2023-02-12T05:08:10.149Z,3.30
2023-02-12T05:10:36.882Z,3.30
2023-02-12T05:13:03.607Z,3.30
2023-02-12T05:15:30.379Z,3.20
2023-02-12T05:17:57.234Z,3.20
2023-02-12T05:20:23.976Z,3.20
2023-02-12T05:22:54.248Z,3.20
2023-02-12T05:25:21.364Z,3.00
2023-02-12T05:27:48.452Z,3.00
2023-02-12T05:30:15.263Z,3.00
2023-02-12T05:32:42.088Z,2.90
2023-02-12T05:35:08.999Z,2.90
2023-02-12T05:37:36.551Z,2.90
2023-02-12T05:40:05.691Z,2.90
2023-02-12T05:42:32.573Z,2.90
2023-02-12T05:44:59.349Z,2.90
2023-02-12T05:47:26.148Z,2.80
2023-02-12T05:49:52.832Z,2.80
2023-02-12T05:52:19.530Z,2.70
2023-02-12T05:54:49.897Z,2.80
2023-02-12T05:57:16.593Z,2.90
2023-02-12T05:59:43.333Z,2.90
2023-02-12T06:02:10.070Z,3.10
2023-02-12T06:04:36.791Z,3.00
2023-02-12T06:07:03.668Z,2.90
2023-02-12T06:09:30.408Z,2.90
2023-02-12T06:11:57.151Z,2.90
2023-02-12T06:14:23.917Z,2.90
2023-02-12T06:16:51.857Z,2.90
2023-02-12T06:19:19.785Z,3.00
2023-02-12T06:21:46.914Z,2.90
2023-02-12T06:24:15.010Z,2.80
2023-02-12T06:26:41.821Z,2.70
2023-02-12T06:29:08.550Z,2.70
2023-02-12T06:31:36.852Z,2.80
2023-02-12T06:34:07.133Z,2.70
2023-02-12T06:36:34.222Z,2.60
2023-02-12T06:39:02.701Z,2.60
2023-02-12T06:41:29.781Z,2.70
2023-02-12T06:43:56.534Z,2.80
2023-02-12T06:46:23.809Z,2.80
2023-02-12T06:48:54.974Z,2.70
2023-02-12T06:51:23.507Z,2.60
2023-02-12T06:53:51.789Z,2.70
2023-02-12T06:56:19.059Z,2.70
2023-02-12T06:58:48.505Z,2.60
2023-02-12T07:01:18.166Z,2.60
2023-02-12T07:03:49.612Z,2.50
2023-02-12T07:06:16.550Z,2.60
2023-02-12T07:08:43.301Z,2.60
2023-02-12T07:11:10.761Z,2.60
2023-02-12T07:13:37.613Z,2.90
2023-02-12T07:16:06.645Z,3.00
2023-02-12T07:18:37.694Z,3.30
2023-02-12T07:21:05.953Z,3.40
2023-02-12T07:23:34.102Z,3.40
2023-02-12T07:26:03.853Z,3.30
2023-02-12T07:28:33.725Z,3.30
2023-02-12T07:31:17.211Z,3.40
2023-02-12T07:33:45.012Z,3.50
2023-02-12T07:36:14.555Z,3.70
2023-02-12T07:38:41.779Z,3.90
2023-02-12T07:41:14.138Z,4.00
2023-02-12T07:43:42.273Z,4.00
2023-02-12T07:46:11.223Z,4.00
2023-02-12T07:48:38.198Z,4.20
2023-02-12T07:51:10.223Z,4.40
2023-02-12T07:53:38.053Z,4.50
2023-02-12T07:56:13.137Z,4.70
2023-02-12T07:58:41.007Z,4.70
2023-02-12T08:01:35.656Z,4.80
2023-02-12T08:04:11.536Z,4.90
2023-02-12T08:06:41.440Z,5.10
2023-02-12T08:09:11.387Z,5.20
2023-02-12T08:11:39.988Z,5.30
2023-02-12T08:14:07.483Z,5.40
2023-02-12T08:16:39.898Z,5.40
2023-02-12T08:19:17.567Z,5.60
2023-02-12T08:21:49.873Z,5.70
2023-02-12T08:24:16.532Z,5.80
2023-02-12T08:26:44.304Z,5.90
2023-02-12T08:29:20.983Z,6.00
2023-02-12T08:31:49.408Z,6.00
2023-02-12T08:34:25.525Z,6.10
2023-02-12T08:36:54.163Z,6.20
2023-02-12T08:39:22.169Z,6.30
2023-02-12T08:41:49.785Z,6.30
2023-02-12T08:44:17.431Z,6.40
2023-02-12T08:46:47.062Z,6.50
2023-02-12T08:49:16.939Z,6.50
2023-02-12T08:51:46.713Z,6.60
2023-02-12T08:54:15.828Z,6.60
2023-02-12T08:56:45.153Z,6.70
2023-02-12T08:59:13.090Z,6.70
2023-02-12T09:01:43.855Z,6.80
2023-02-12T09:04:17.945Z,6.90
2023-02-12T09:06:46.074Z,7.00
2023-02-12T09:09:13.144Z,6.90
2023-02-12T09:11:39.983Z,7.00
2023-02-12T09:14:09.276Z,7.00
2023-02-12T09:16:37.198Z,7.20
2023-02-12T09:19:05.105Z,7.30
2023-02-12T09:21:32.143Z,7.20
2023-02-12T09:23:59.031Z,7.40
2023-02-12T09:26:26.250Z,7.50
2023-02-12T09:28:54.111Z,7.50
2023-02-12T09:31:27.314Z,7.60
2023-02-12T09:33:58.239Z,7.70
2023-02-12T09:36:25.481Z,7.90
2023-02-12T09:38:54.392Z,7.90
2023-02-12T09:41:30.065Z,8.00
2023-02-12T09:44:00.824Z,8.10
2023-02-12T09:47:01.802Z,8.20
2023-02-12T09:50:00.987Z,8.30
2023-02-12T09:52:28.907Z,8.40
2023-02-12T09:54:56.915Z,8.40
2023-02-12T09:57:38.122Z,8.50
2023-02-12T10:00:09.585Z,8.50
2023-02-12T10:02:39.405Z,8.60
2023-02-12T10:05:16.408Z,8.70
2023-02-12T10:07:43.207Z,8.90
2023-02-12T10:10:28.580Z,9.00
2023-02-12T10:13:02.590Z,9.10
2023-02-12T10:15:35.761Z,9.20
2023-02-12T10:18:30.666Z,9.20
2023-02-12T10:21:03.204Z,9.30
2023-02-12T10:23:54.392Z,9.40
2023-02-12T10:26:29.782Z,9.60
2023-02-12T10:29:05.253Z,9.70
2023-02-12T10:31:45.782Z,9.90
2023-02-12T10:34:18.342Z,10.10
2023-02-12T10:36:47.676Z,10.30
2023-02-12T10:39:20.462Z,10.30
2023-02-12T10:42:04.453Z,10.50
2023-02-12T10:44:31.913Z,11.00
2023-02-12T10:46:58.630Z,11.30
2023-02-12T10:49:25.589Z,11.30
2023-02-12T10:52:03.913Z,11.30
2023-02-12T10:54:43.738Z,11.30
2023-02-12T10:57:26.076Z,11.40
2023-02-12T10:59:57.094Z,11.60
2023-02-12T11:02:31.258Z,11.60
2023-02-12T11:04:59.709Z,11.50
2023-02-12T11:07:27.722Z,11.90
2023-02-12T11:09:56.943Z,12.40
2023-02-12T11:12:31.709Z,13.00
2023-02-12T11:15:01.822Z,13.20
2023-02-12T11:17:43.167Z,13.50
2023-02-12T11:20:21.583Z,13.80
2023-02-12T11:22:54.671Z,13.90
2023-02-12T11:25:23.048Z,14.40
2023-02-12T11:28:02.965Z,15.50
2023-02-12T11:30:30.517Z,18.40
2023-02-12T11:33:31.480Z,22.20
2023-02-12T11:36:23.508Z,25.50
2023-02-12T11:38:56.377Z,28.00
2023-02-12T11:41:36.474Z,30.30
2023-02-12T11:44:26.605Z,31.40
2023-02-12T11:46:59.106Z,32.10
2023-02-12T11:49:30.425Z,31.90
2023-02-12T11:51:59.718Z,31.80
2023-02-12T11:54:30.155Z,32.30
2023-02-12T11:56:56.957Z,32.30
2023-02-12T11:59:36.311Z,32.00
2023-02-12T12:02:23.387Z,31.90
2023-02-12T12:04:54.460Z,31.20
2023-02-12T12:07:33.553Z,31.40
2023-02-12T12:10:06.231Z,31.40
2023-02-12T12:12:56.134Z,31.30
2023-02-12T12:15:47.287Z,30.70
2023-02-12T12:19:10.509Z,30.30
2023-02-12T12:21:43.553Z,31.00
2023-02-12T12:24:18.630Z,30.50
2023-02-12T12:27:00.318Z,30.40
2023-02-12T12:29:40.252Z,31.00
2023-02-12T12:32:09.496Z,31.00
2023-02-12T12:34:36.132Z,31.20
2023-02-12T12:37:17.826Z,31.00
2023-02-12T12:40:21.803Z,31.00
2023-02-12T12:43:16.281Z,31.80
2023-02-12T12:46:07.803Z,32.60
2023-02-12T12:49:07.688Z,32.60
2023-02-12T12:52:05.441Z,32.60
2023-02-12T12:54:52.737Z,32.10
2023-02-12T12:57:56.304Z,32.10
2023-02-12T13:00:40.734Z,31.90
2023-02-12T13:03:38.370Z,32.00
2023-02-12T13:06:28.284Z,32.70
2023-02-12T13:09:20.125Z,32.70
2023-02-12T13:12:04.948Z,32.50
2023-02-12T13:15:09.771Z,32.80
2023-02-12T13:17:51.755Z,32.30
2023-02-12T13:20:44.972Z,31.70
2023-02-12T13:23:27.821Z,31.60
2023-02-12T13:26:06.305Z,32.40
2023-02-12T13:28:40.962Z,32.20
2023-02-12T13:31:33.982Z,32.10
2023-02-12T13:34:11.301Z,32.20
2023-02-12T13:36:38.960Z,32.40
2023-02-12T13:39:05.805Z,32.20
2023-02-12T13:41:34.105Z,32.10
2023-02-12T13:44:11.592Z,31.70
2023-02-12T13:46:47.164Z,31.50
2023-02-12T13:49:34.056Z,31.50
2023-02-12T13:52:11.614Z,31.30
2023-02-12T13:55:03.089Z,31.20
2023-02-12T13:57:30.070Z,31.30
2023-02-12T13:59:58.314Z,31.00
2023-02-12T14:02:38.348Z,31.00
2023-02-12T14:05:18.789Z,31.20
2023-02-12T14:07:47.645Z,30.60
2023-02-12T14:10:28.410Z,30.70
2023-02-12T14:13:17.424Z,30.50
2023-02-12T14:15:51.043Z,30.50
2023-02-12T14:18:35.988Z,30.40
2023-02-12T14:21:11.542Z,30.20
2023-02-12T14:23:46.008Z,30.30
2023-02-12T14:26:15.976Z,30.30
2023-02-12T14:28:56.812Z,30.00
2023-02-12T14:31:38.212Z,30.00
2023-02-12T14:34:05.037Z,30.10
2023-02-12T14:36:42.657Z,29.70
2023-02-12T14:39:24.596Z,29.80
2023-02-12T14:42:10.138Z,29.90
2023-02-12T14:44:37.799Z,28.10
2023-02-12T14:47:14.241Z,26.00
2023-02-12T14:49:52.303Z,24.30
2023-02-12T14:52:23.004Z,22.50
2023-02-12T14:55:18.229Z,21.40
2023-02-12T14:57:45.233Z,20.60
2023-02-12T15:00:18.231Z,19.90
2023-02-12T15:03:05.496Z,19.30
2023-02-12T15:06:02.061Z,19.00
2023-02-12T15:08:47.189Z,18.70
2023-02-12T15:11:21.264Z,18.30
2023-02-12T15:14:00.964Z,18.00
2023-02-12T15:16:38.596Z,17.80
2023-02-12T15:19:14.145Z,17.70
2023-02-12T15:21:41.336Z,17.60
2023-02-12T15:24:13.852Z,17.30
2023-02-12T15:27:01.172Z,17.20
2023-02-12T15:29:43.839Z,17.30
2023-02-12T15:32:19.395Z,17.30
2023-02-12T15:34:48.020Z,17.10
2023-02-12T15:37:23.942Z,17.10
2023-02-12T15:39:54.736Z,16.90
2023-02-12T15:42:24.580Z,16.70
2023-02-12T15:44:51.225Z,16.70
2023-02-12T15:47:24.644Z,16.70
2023-02-12T15:49:51.604Z,16.40
2023-02-12T15:52:24.758Z,16.30
2023-02-12T15:54:51.874Z,16.30
2023-02-12T15:57:25.215Z,16.20
2023-02-12T15:59:53.758Z,16.00
2023-02-12T16:02:25.427Z,15.90
2023-02-12T16:04:52.435Z,15.80
2023-02-12T16:07:20.373Z,15.50
2023-02-12T16:09:48.617Z,15.60
2023-02-12T16:12:20.616Z,15.60
2023-02-12T16:15:05.835Z,15.50
2023-02-12T16:17:36.157Z,15.40
2023-02-12T16:20:20.409Z,15.50
2023-02-12T16:22:49.154Z,15.30
2023-02-12T16:25:22.355Z,15.20
2023-02-12T16:28:01.538Z,15.10
2023-02-12T16:30:34.210Z,15.10
2023-02-12T16:33:03.844Z,14.90
2023-02-12T16:35:35.658Z,14.80
2023-02-12T16:38:27.502Z,14.80
2023-02-12T16:41:25.386Z,14.70
2023-02-12T16:44:18.150Z,14.50
2023-02-12T16:46:56.884Z,14.20
2023-02-12T16:49:26.055Z,14.10
2023-02-12T16:51:53.641Z,14.00
2023-02-12T16:54:35.248Z,13.80
2023-02-12T16:57:02.354Z,13.70
2023-02-12T16:59:30.118Z,13.60
2023-02-12T17:02:12.661Z,13.60
2023-02-12T17:04:39.734Z,13.50
2023-02-12T17:07:18.876Z,13.50
2023-02-12T17:09:45.594Z,13.30
2023-02-12T17:12:12.389Z,13.10
2023-02-12T17:14:39.211Z,13.00
2023-02-12T17:17:06.239Z,13.00
2023-02-12T17:19:33.042Z,12.90
2023-02-12T17:22:00.117Z,12.80
2023-02-12T17:24:30.150Z,12.70
2023-02-12T17:26:57.780Z,12.70
2023-02-12T17:29:25.406Z,12.60
2023-02-12T17:31:56.184Z,12.50
2023-02-12T17:34:23.901Z,12.40
2023-02-12T17:36:50.803Z,12.30
2023-02-12T17:39:18.246Z,12.20
2023-02-12T17:41:45.274Z,12.20
2023-02-12T17:44:13.953Z,12.20
2023-02-12T17:46:41.001Z,12.40
2023-02-12T17:49:07.736Z,12.20
2023-02-12T17:51:34.440Z,12.10
2023-02-12T17:54:01.225Z,12.00
2023-02-12T17:56:28.136Z,11.90
2023-02-12T17:58:54.880Z,11.90
2023-02-12T18:01:23.501Z,11.90
2023-02-12T18:03:52.385Z,11.90
2023-02-12T18:06:25.396Z,11.80
2023-02-12T18:08:52.649Z,11.80
2023-02-12T18:11:19.987Z,11.70
2023-02-12T18:13:47.390Z,11.60
2023-02-12T18:16:14.534Z,11.60
2023-02-12T18:18:41.316Z,11.70
2023-02-12T18:21:10.184Z,11.60
2023-02-12T18:23:37.737Z,11.50
2023-02-12T18:26:10.031Z,11.50
2023-02-12T18:28:37.498Z,11.40
2023-02-12T18:31:04.960Z,11.50
2023-02-12T18:33:32.532Z,11.40
2023-02-12T18:36:00.591Z,11.30
2023-02-12T18:38:28.122Z,11.40
2023-02-12T18:40:55.103Z,11.30
2023-02-12T18:43:24.648Z,11.20
2023-02-12T18:45:51.702Z,11.10
2023-02-12T18:48:18.428Z,11.00
2023-02-12T18:50:45.165Z,11.20
2023-02-12T18:53:11.863Z,11.10
2023-02-12T18:55:39.733Z,11.20
2023-02-12T18:58:06.491Z,11.20
2023-02-12T19:00:33.234Z,11.10
2023-02-12T19:03:00.124Z,11.10
2023-02-12T19:05:27.041Z,11.00
2023-02-12T19:07:53.792Z,10.90
2023-02-12T19:10:22.030Z,10.80
2023-02-12T19:12:49.081Z,10.70
2023-02-12T19:15:17.187Z,10.60
2023-02-12T19:17:43.917Z,10.60
2023-02-12T19:20:12.025Z,10.60
2023-02-12T19:22:39.763Z,10.50
2023-02-12T19:25:06.812Z,10.40
2023-02-12T19:27:33.826Z,10.40
2023-02-12T19:30:01.808Z,10.30
2023-02-12T19:32:28.711Z,10.30
2023-02-12T19:34:55.458Z,10.40
2023-02-12T19:37:22.382Z,10.30
2023-02-12T19:39:49.266Z,10.20
2023-02-12T19:42:17.591Z,10.20
2023-02-12T19:44:46.617Z,10.20
2023-02-12T19:47:13.514Z,10.20
2023-02-12T19:49:41.363Z,10.30
2023-02-12T19:52:08.600Z,10.20
2023-02-12T19:54:35.936Z,10.10
2023-02-12T19:57:08.495Z,10.00
2023-02-12T19:59:36.198Z,9.90
2023-02-12T20:02:03.528Z,10.00
2023-02-12T20:04:31.205Z,9.90
2023-02-12T20:06:57.918Z,9.90
2023-02-12T20:09:24.902Z,9.90
2023-02-12T20:11:52.574Z,9.80
2023-02-12T20:14:22.546Z,9.80
2023-02-12T20:16:50.385Z,9.80
2023-02-12T20:19:30.106Z,9.80
2023-02-12T20:21:58.185Z,9.60
2023-02-12T20:24:30.104Z,9.70
2023-02-12T20:26:58.717Z,9.70
2023-02-12T20:29:25.840Z,9.80
2023-02-12T20:31:53.179Z,9.70
2023-02-12T20:34:20.756Z,9.60
2023-02-12T20:36:48.182Z,9.60
2023-02-12T20:39:18.714Z,9.40
2023-02-12T20:41:45.914Z,9.40
2023-02-12T20:44:16.856Z,9.30
2023-02-12T20:46:48.498Z,9.30
2023-02-12T20:49:17.350Z,9.40
2023-02-12T20:51:45.034Z,9.50
2023-02-12T20:54:12.145Z,9.50
2023-02-12T20:56:39.214Z,9.50
2023-02-12T20:59:06.896Z,9.50
2023-02-12T21:01:38.927Z,9.40
2023-02-12T21:04:09.769Z,9.40
2023-02-12T21:06:40.116Z,9.30
2023-02-12T21:09:09.721Z,9.30
2023-02-12T21:11:37.140Z,9.30
2023-02-12T21:14:20.920Z,9.30
2023-02-12T21:16:48.531Z,9.30
2023-02-12T21:19:15.401Z,9.20
2023-02-12T21:21:45.187Z,9.10
2023-02-12T21:24:18.801Z,8.90
2023-02-12T21:26:45.580Z,8.80
2023-02-12T21:29:12.538Z,8.70
2023-02-12T21:31:41.869Z,8.70
2023-02-12T21:34:12.478Z,8.70
2023-02-12T21:36:41.368Z,8.70
2023-02-12T21:39:11.578Z,8.70
2023-02-12T21:41:40.333Z,8.70
2023-02-12T21:44:25.979Z,8.70
2023-02-12T21:46:53.331Z,8.60
2023-02-12T21:49:28.065Z,8.60
2023-02-12T21:52:02.019Z,8.70
2023-02-12T21:54:29.511Z,8.70
2023-02-12T21:56:56.913Z,8.70
2023-02-12T21:59:24.873Z,8.70
2023-02-12T22:01:53.148Z,8.60
2023-02-12T22:04:20.165Z,8.50
2023-02-12T22:06:49.534Z,8.60
2023-02-12T22:09:19.870Z,8.70
2023-02-12T22:11:46.937Z,8.50
2023-02-12T22:14:15.919Z,8.60
2023-02-12T22:16:42.887Z,8.70
2023-02-12T22:19:09.923Z,8.80
2023-02-12T22:21:40.074Z,8.80
2023-02-12T22:24:09.364Z,8.70
2023-02-12T22:26:36.157Z,8.70
2023-02-12T22:29:06.218Z,8.60
2023-02-12T22:31:36.360Z,8.60
2023-02-12T22:34:08.247Z,8.70
2023-02-12T22:36:36.349Z,8.80
2023-02-12T22:39:04.632Z,8.80
2023-02-12T22:41:31.689Z,8.70
2023-02-12T22:44:00.358Z,8.60
2023-02-12T22:46:27.481Z,8.70
2023-02-12T22:48:54.528Z,8.60
2023-02-12T22:51:24.417Z,8.60
2023-02-12T22:53:51.724Z,8.60
2023-02-12T22:56:18.900Z,8.60
2023-02-12T22:58:46.016Z,8.60
2023-02-12T23:01:18.049Z,8.60
2023-02-12T23:03:45.703Z,8.50
2023-02-12T23:06:16.225Z,8.40
2023-02-12T23:08:44.036Z,8.40
2023-02-12T23:11:11.994Z,8.40
2023-02-12T23:13:38.967Z,8.50
2023-02-12T23:16:06.053Z,8.40
2023-02-12T23:18:33.312Z,8.40
2023-02-12T23:21:01.570Z,8.20
2023-02-12T23:23:28.495Z,8.20
2023-02-12T23:25:55.427Z,8.10
2023-02-12T23:28:23.401Z,8.00
2023-02-12T23:30:51.659Z,7.90
2023-02-12T23:33:19.409Z,7.80
2023-02-12T23:35:46.972Z,7.90
2023-02-12T23:38:14.464Z,7.90
2023-02-12T23:40:41.530Z,7.70
2023-02-12T23:43:08.989Z,7.70
2023-02-12T23:45:35.652Z,7.70
2023-02-12T23:48:02.368Z,7.60
2023-02-12T23:50:29.164Z,7.60
2023-02-12T23:52:56.037Z,7.50
2023-02-12T23:55:22.819Z,7.60
2023-02-12T23:57:50.352Z,7.50
